createdAt,value
2018-07-03T00:00:54.252Z,64.80
2018-07-03T00:03:23.888Z,69.60
2018-07-03T00:05:59.366Z,70.50
2018-07-03T00:10:56.356Z,74.90
2018-07-03T00:13:25.120Z,75.90
2018-07-03T00:15:53.376Z,74.50
2018-07-03T00:18:22.092Z,72.90
2018-07-03T00:20:53.546Z,72.70
2018-07-03T00:23:22.711Z,70.20
2018-07-03T00:25:50.928Z,68.60
2018-07-03T00:28:19.223Z,68.00
2018-07-03T00:33:16.509Z,72.60
2018-07-03T00:35:45.173Z,79.30
2018-07-03T00:38:13.417Z,78.00
2018-07-03T00:40:41.705Z,74.10
2018-07-03T00:43:09.977Z,78.00
2018-07-03T00:45:38.745Z,81.60
2018-07-03T00:48:06.988Z,81.70
2018-07-03T00:50:38.189Z,83.00
2018-07-03T00:53:06.412Z,83.60
2018-07-03T00:55:34.661Z,83.40
2018-07-03T00:58:03.246Z,87.30
2018-07-03T01:00:34.749Z,89.50
2018-07-03T01:05:37.381Z,92.20
2018-07-03T01:08:05.656Z,93.30
2018-07-03T01:10:34.148Z,92.30
2018-07-03T01:13:02.392Z,91.90
2018-07-03T01:15:30.608Z,91.60
2018-07-03T01:17:59.777Z,91.30
2018-07-03T01:20:32.236Z,92.70
2018-07-03T01:23:00.493Z,91.60
2018-07-03T01:25:29.520Z,92.30
2018-07-03T01:27:57.864Z,92.20
2018-07-03T01:30:26.094Z,92.50
2018-07-03T01:32:54.539Z,92.90
2018-07-03T01:35:26.547Z,93.80
2018-07-03T01:37:55.440Z,94.60
2018-07-03T01:40:23.712Z,96.00
2018-07-03T01:45:19.916Z,98.30
2018-07-03T01:47:48.384Z,99.00
2018-07-03T01:50:16.610Z,99.30
2018-07-03T01:52:44.859Z,99.90
2018-07-03T01:55:13.066Z,99.90
2018-07-03T01:57:41.319Z,99.90
2018-07-03T02:00:09.560Z,99.90
2018-07-03T02:02:37.762Z,99.90
2018-07-03T02:05:06.041Z,99.90
2018-07-03T02:07:35.268Z,99.90
2018-07-03T02:12:31.975Z,99.90
2018-07-03T02:15:01.104Z,99.90
2018-07-03T02:17:29.374Z,99.90
2018-07-03T02:19:57.736Z,99.90
2018-07-03T02:22:26.360Z,99.90
2018-07-03T02:24:54.633Z,99.90
2018-07-03T02:29:52.460Z,99.90
2018-07-03T02:32:20.662Z,99.90
2018-07-03T02:34:48.883Z,99.90
2018-07-03T02:37:17.084Z,99.90
2018-07-03T02:39:46.197Z,99.90
2018-07-03T02:42:14.447Z,99.90
2018-07-03T02:44:43.249Z,99.90
2018-07-03T02:47:11.497Z,99.90
2018-07-03T02:49:39.700Z,99.90
2018-07-03T02:52:08.824Z,99.90
2018-07-03T02:54:37.026Z,99.90
2018-07-03T02:57:05.241Z,99.90
2018-07-03T02:59:33.768Z,99.90
2018-07-03T03:02:03.162Z,99.90
2018-07-03T03:04:31.361Z,99.90
2018-07-03T03:07:03.968Z,99.90
2018-07-03T03:09:32.208Z,99.90
2018-07-03T03:12:00.468Z,99.90
2018-07-03T03:14:28.704Z,99.90
2018-07-03T03:16:57.884Z,99.90
2018-07-03T03:19:26.138Z,99.90
2018-07-03T03:21:54.456Z,99.90
2018-07-03T03:26:52.180Z,99.90
2018-07-03T03:29:21.281Z,99.90
2018-07-03T03:31:49.538Z,99.90
2018-07-03T03:34:18.148Z,99.90
2018-07-03T03:36:46.413Z,99.90
2018-07-03T03:39:14.700Z,99.90
2018-07-03T03:41:43.422Z,99.90
2018-07-03T03:44:11.640Z,99.90
2018-07-03T03:46:39.917Z,99.90
2018-07-03T03:49:08.190Z,99.90
2018-07-03T03:51:37.488Z,99.90
2018-07-03T03:54:06.093Z,99.90
2018-07-03T03:56:34.344Z,99.90
2018-07-03T03:59:03.159Z,99.90
2018-07-03T04:01:32.237Z,99.80
2018-07-03T04:04:00.542Z,99.20
2018-07-03T04:06:28.831Z,98.00
2018-07-03T04:09:00.832Z,98.30
2018-07-03T04:11:32.217Z,99.30
2018-07-03T04:14:00.445Z,99.90
2018-07-03T04:16:28.665Z,99.10
2018-07-03T04:21:25.859Z,89.70
2018-07-03T04:23:58.185Z,89.50
2018-07-03T04:26:30.930Z,90.00
2018-07-03T04:28:59.192Z,89.90
2018-07-03T04:31:27.492Z,86.90
2018-07-03T04:33:55.716Z,86.80
2018-07-03T04:36:24.034Z,84.20
2018-07-03T04:38:52.433Z,82.40
2018-07-03T04:41:24.545Z,80.50
2018-07-03T04:43:52.775Z,78.50
2018-07-03T04:46:21.053Z,76.30
2018-07-03T04:48:49.356Z,72.20
2018-07-03T04:51:17.635Z,70.00
2018-07-03T04:53:50.720Z,67.00
2018-07-03T04:56:19.171Z,64.20
2018-07-03T04:58:47.453Z,63.40
2018-07-03T05:01:15.824Z,64.30
2018-07-03T05:03:44.047Z,63.20
2018-07-03T05:08:40.287Z,58.60
2018-07-03T05:11:11.336Z,56.80
2018-07-03T05:13:39.694Z,56.70
2018-07-03T05:16:08.913Z,57.00
2018-07-03T05:18:37.378Z,55.80
2018-07-03T05:21:06.741Z,54.80
2018-07-03T05:23:34.973Z,55.00
2018-07-03T05:26:11.280Z,55.30
2018-07-03T05:31:08.920Z,51.50
2018-07-03T05:33:37.385Z,51.00
2018-07-03T05:36:05.725Z,50.60
2018-07-03T05:38:34.096Z,50.80
2018-07-03T05:41:02.378Z,48.70
2018-07-03T05:43:30.696Z,47.10
2018-07-03T05:45:59.701Z,46.40
2018-07-03T05:48:27.969Z,45.70
2018-07-03T05:50:56.225Z,45.10
2018-07-03T05:53:24.585Z,45.50
2018-07-03T05:55:52.805Z,45.10
2018-07-03T05:58:21.118Z,43.50
2018-07-03T06:00:49.348Z,43.50
2018-07-03T06:03:17.709Z,43.10
2018-07-03T06:05:46.005Z,42.00
2018-07-03T06:10:45.969Z,40.70
2018-07-03T06:13:14.418Z,41.20
2018-07-03T06:15:42.742Z,42.30
2018-07-03T06:18:11.276Z,41.70
2018-07-03T06:20:39.536Z,41.60
2018-07-03T06:23:07.834Z,43.50
2018-07-03T06:25:41.668Z,42.70
2018-07-03T06:28:09.923Z,42.60
2018-07-03T06:30:38.218Z,42.40
2018-07-03T06:33:06.529Z,41.80
2018-07-03T06:35:34.854Z,42.80
2018-07-03T06:38:03.131Z,42.80
2018-07-03T06:40:35.640Z,42.80
2018-07-03T06:43:03.957Z,43.50
2018-07-03T06:45:32.283Z,44.00
2018-07-03T06:48:00.525Z,44.10
2018-07-03T06:50:30.756Z,45.60
2018-07-03T06:52:59.008Z,47.10
2018-07-03T06:55:27.333Z,48.80
2018-07-03T06:57:55.648Z,50.30
2018-07-03T07:00:24.826Z,51.90
2018-07-03T07:02:53.154Z,52.60
2018-07-03T07:05:21.541Z,52.60
2018-07-03T07:07:49.945Z,53.40
2018-07-03T07:10:18.505Z,54.10
2018-07-03T07:12:46.785Z,54.30
2018-07-03T07:15:15.091Z,53.90
2018-07-03T07:17:43.370Z,52.90
2018-07-03T07:20:11.687Z,53.20
2018-07-03T07:22:40.116Z,54.00
2018-07-03T07:25:10.126Z,52.70
2018-07-03T07:27:39.114Z,53.20
2018-07-03T07:30:07.963Z,51.80
2018-07-03T07:35:04.533Z,51.90
2018-07-03T07:37:33.697Z,51.10
2018-07-03T07:40:01.940Z,50.70
2018-07-03T07:42:30.613Z,50.90
2018-07-03T07:44:59.254Z,51.30
2018-07-03T07:47:28.888Z,51.40
2018-07-03T07:49:57.420Z,51.00
2018-07-03T07:52:25.881Z,51.40
2018-07-03T07:54:54.125Z,50.80
2018-07-03T07:57:26.473Z,50.60
2018-07-03T07:59:54.735Z,50.80
2018-07-03T08:02:24.101Z,50.50
2018-07-03T08:04:52.436Z,50.60
2018-07-03T08:07:20.658Z,50.80
2018-07-03T08:09:50.296Z,50.80
2018-07-03T08:12:23.132Z,50.50
2018-07-03T08:14:52.301Z,50.40
2018-07-03T08:17:20.592Z,50.60
2018-07-03T08:19:48.975Z,50.70
2018-07-03T08:22:17.245Z,50.90
2018-07-03T08:24:45.465Z,50.30
2018-07-03T08:27:18.052Z,50.20
2018-07-03T08:29:46.273Z,50.30
2018-07-03T08:32:15.194Z,49.80
2018-07-03T08:34:43.541Z,50.10
2018-07-03T08:37:11.780Z,50.50
2018-07-03T08:39:40.080Z,49.90
2018-07-03T08:42:08.627Z,49.00
2018-07-03T08:44:37.518Z,49.00
2018-07-03T08:47:05.744Z,49.40
2018-07-03T08:49:34.944Z,50.10
2018-07-03T08:52:04.174Z,50.10
2018-07-03T08:57:01.563Z,47.50
2018-07-03T08:59:29.825Z,47.20
2018-07-03T09:01:58.072Z,46.50
2018-07-03T09:04:26.379Z,47.00
2018-07-03T09:06:55.056Z,47.30
2018-07-03T09:11:52.292Z,46.50
2018-07-03T09:14:25.325Z,46.10
2018-07-03T09:16:54.269Z,46.30
2018-07-03T09:19:22.729Z,46.40
2018-07-03T09:21:51.349Z,46.10
2018-07-03T09:24:20.627Z,46.10
2018-07-03T09:26:49.985Z,44.60
2018-07-03T09:29:18.213Z,43.60
2018-07-03T09:31:50.113Z,43.10
2018-07-03T09:34:18.600Z,42.30
2018-07-03T09:36:46.914Z,42.60
2018-07-03T09:39:16.750Z,43.90
2018-07-03T09:44:13.810Z,43.30
2018-07-03T09:46:52.677Z,44.40
2018-07-03T09:49:20.908Z,44.20
2018-07-03T09:51:49.226Z,43.40
2018-07-03T09:56:45.534Z,42.10
2018-07-03T09:59:13.797Z,42.30
2018-07-03T10:01:43.261Z,41.80
2018-07-03T10:04:12.048Z,42.00
2018-07-03T10:09:09.784Z,43.10
2018-07-03T10:11:38.041Z,43.20
2018-07-03T10:14:07.353Z,41.30
2018-07-03T10:16:35.628Z,39.70
2018-07-03T10:19:03.962Z,39.80
2018-07-03T10:21:32.744Z,40.50
2018-07-03T10:24:02.602Z,40.40
2018-07-03T10:29:00.475Z,40.50
2018-07-03T10:31:28.721Z,41.10
2018-07-03T10:33:57.420Z,40.30
2018-07-03T10:36:26.072Z,40.60
2018-07-03T10:38:54.333Z,40.40
2018-07-03T10:41:23.502Z,40.70
2018-07-03T10:43:52.246Z,40.70
2018-07-03T10:46:24.006Z,39.90
2018-07-03T10:48:52.590Z,40.10
2018-07-03T10:51:20.864Z,40.30
2018-07-03T10:53:49.362Z,39.90
2018-07-03T10:56:18.370Z,39.50
2018-07-03T10:58:47.237Z,38.30
2018-07-03T11:01:15.477Z,38.20
2018-07-03T11:03:44.004Z,38.40
2018-07-03T11:06:12.832Z,39.10
2018-07-03T11:08:42.507Z,39.50
2018-07-03T11:11:10.815Z,39.70
2018-07-03T11:13:39.115Z,39.30
2018-07-03T11:16:07.626Z,39.80
2018-07-03T11:18:35.893Z,38.00
2018-07-03T11:21:04.141Z,37.60
2018-07-03T11:28:30.380Z,37.80
2018-07-03T11:31:05.778Z,37.60
2018-07-03T11:33:37.649Z,37.40
2018-07-03T11:36:05.973Z,37.70
2018-07-03T11:38:34.709Z,37.20
2018-07-03T11:43:34.044Z,37.70
2018-07-03T11:46:03.585Z,38.20
2018-07-03T11:50:59.870Z,37.90
2018-07-03T11:53:28.520Z,37.20
2018-07-03T11:55:56.978Z,37.20
2018-07-03T11:58:25.216Z,37.30
2018-07-03T12:00:53.463Z,36.90
2018-07-03T12:03:21.736Z,35.40
2018-07-03T12:05:50.149Z,36.10
2018-07-03T12:08:18.419Z,36.20
2018-07-03T12:10:46.762Z,35.80
2018-07-03T12:13:14.956Z,35.30
2018-07-03T12:15:43.255Z,35.00
2018-07-03T12:18:15.797Z,34.90
2018-07-03T12:20:44.064Z,35.30
2018-07-03T12:23:14.189Z,36.20
2018-07-03T12:28:12.009Z,34.90
2018-07-03T12:30:40.690Z,34.60
2018-07-03T12:33:09.477Z,35.10
2018-07-03T12:35:38.476Z,35.00
2018-07-03T12:38:09.084Z,35.50
2018-07-03T12:40:42.094Z,34.80
2018-07-03T12:43:10.661Z,34.80
2018-07-03T12:45:41.817Z,35.00
2018-07-03T12:48:10.660Z,34.70
2018-07-03T12:50:40.529Z,35.10
2018-07-03T12:55:37.873Z,35.30
2018-07-03T12:58:06.087Z,35.10
2018-07-03T13:00:35.817Z,34.80
2018-07-03T13:03:05.793Z,34.70
2018-07-03T13:08:03.023Z,34.50
2018-07-03T13:10:31.561Z,34.10
2018-07-03T13:15:28.172Z,34.70
2018-07-03T13:17:56.512Z,34.80
2018-07-03T13:20:25.661Z,35.50
2018-07-03T13:22:54.465Z,34.70
2018-07-03T13:25:22.709Z,33.90
2018-07-03T13:27:51.446Z,34.10
2018-07-03T13:30:19.756Z,33.70
2018-07-03T13:32:48.861Z,32.90
2018-07-03T13:35:17.087Z,33.40
2018-07-03T13:37:45.325Z,32.50
2018-07-03T13:40:14.521Z,33.10
2018-07-03T13:42:43.102Z,32.10
2018-07-03T13:45:11.900Z,31.90
2018-07-03T13:47:40.148Z,32.00
2018-07-03T13:50:09.658Z,32.30
2018-07-03T13:52:38.023Z,32.30
2018-07-03T13:55:06.420Z,32.20
2018-07-03T13:57:34.690Z,32.00
2018-07-03T14:00:02.946Z,31.20
2018-07-03T14:02:31.264Z,31.40
2018-07-03T14:04:59.497Z,30.90
2018-07-03T14:07:27.773Z,32.00
2018-07-03T14:09:56.100Z,31.00
2018-07-03T14:12:24.357Z,31.10
2018-07-03T14:14:53.194Z,32.30
2018-07-03T14:17:21.425Z,30.50
2018-07-03T14:19:49.644Z,30.80
2018-07-03T14:22:18.308Z,31.10
2018-07-03T14:24:46.725Z,32.00
2018-07-03T14:27:15.623Z,31.10
2018-07-03T14:29:43.867Z,31.30
2018-07-03T14:32:12.667Z,32.10
2018-07-03T14:34:40.915Z,31.50
2018-07-03T14:37:09.318Z,32.00
2018-07-03T14:39:38.384Z,31.10
2018-07-03T14:42:07.343Z,30.40
2018-07-03T14:44:35.790Z,30.70
2018-07-03T14:47:04.085Z,30.00
2018-07-03T14:49:36.630Z,30.80
2018-07-03T14:52:05.051Z,31.10
2018-07-03T14:54:33.628Z,30.70
2018-07-03T14:57:02.029Z,30.10
2018-07-03T15:01:58.298Z,30.90
2018-07-03T15:04:26.506Z,30.50
2018-07-03T15:06:57.588Z,30.50
2018-07-03T15:09:25.844Z,30.80
2018-07-03T15:11:54.609Z,30.00
2018-07-03T15:14:24.164Z,30.10
2018-07-03T15:16:52.395Z,30.00
2018-07-03T15:19:30.006Z,30.20
2018-07-03T15:22:05.416Z,29.80
2018-07-03T15:24:33.705Z,29.80
2018-07-03T15:27:01.940Z,29.50
2018-07-03T15:29:30.901Z,29.40
2018-07-03T15:31:59.584Z,29.80
2018-07-03T15:34:27.841Z,29.40
2018-07-03T15:36:59.954Z,28.70
2018-07-03T15:39:28.848Z,28.70
2018-07-03T15:41:57.116Z,28.20
2018-07-03T15:47:00.651Z,28.50
2018-07-03T15:49:35.896Z,28.60
2018-07-03T15:52:07.524Z,28.60
2018-07-03T15:54:35.781Z,28.80
2018-07-03T15:57:04.081Z,29.30
2018-07-03T15:59:33.330Z,28.90
2018-07-03T16:02:01.552Z,29.10
2018-07-03T16:05:11.707Z,28.70
2018-07-03T16:08:04.764Z,28.60
2018-07-03T16:10:33.838Z,28.60
2018-07-03T16:13:02.041Z,28.00
2018-07-03T16:15:30.530Z,26.60
2018-07-03T16:17:59.213Z,25.60
2018-07-03T16:20:36.432Z,24.50
2018-07-03T16:23:06.304Z,25.00
2018-07-03T16:25:34.624Z,23.90
2018-07-03T16:28:02.991Z,22.90
2018-07-03T16:30:32.337Z,22.60
2018-07-03T16:33:00.936Z,21.40
2018-07-03T16:35:29.201Z,21.20
2018-07-03T16:38:01.751Z,20.70
2018-07-03T16:40:30.892Z,20.50
2018-07-03T16:42:59.250Z,20.20
2018-07-03T16:45:27.530Z,19.90
2018-07-03T16:47:55.752Z,20.60
2018-07-03T16:52:59.932Z,21.00
2018-07-03T16:55:28.233Z,21.70
2018-07-03T16:57:56.640Z,21.60
2018-07-03T17:00:28.812Z,21.50
2018-07-03T17:02:58.196Z,20.40
2018-07-03T17:05:27.438Z,19.50
2018-07-03T17:07:59.233Z,19.70
2018-07-03T17:10:28.036Z,19.10
2018-07-03T17:12:56.492Z,18.70
2018-07-03T17:15:25.073Z,18.50
2018-07-03T17:17:53.501Z,18.40
2018-07-03T17:20:21.806Z,18.80
2018-07-03T17:22:51.204Z,19.30
2018-07-03T17:25:19.693Z,19.70
2018-07-03T17:27:48.946Z,19.80
2018-07-03T17:30:18.005Z,18.90
2018-07-03T17:32:46.860Z,18.80
2018-07-03T17:37:43.494Z,18.80
2018-07-03T17:43:03.141Z,19.80
2018-07-03T17:48:08.836Z,21.20
2018-07-03T17:50:37.880Z,21.20
2018-07-03T17:53:06.473Z,22.30
2018-07-03T17:58:06.319Z,22.30
2018-07-03T18:03:03.258Z,22.40
2018-07-03T18:05:32.173Z,22.20
2018-07-03T18:08:00.684Z,21.80
2018-07-03T18:10:29.171Z,22.40
2018-07-03T18:12:58.028Z,22.60
2018-07-03T18:15:27.153Z,22.40
2018-07-03T18:17:56.009Z,22.20
2018-07-03T18:20:24.373Z,23.20
2018-07-03T18:22:56.677Z,23.20
2018-07-03T18:25:25.150Z,24.30
2018-07-03T18:27:53.645Z,23.90
2018-07-03T18:30:21.976Z,23.60
2018-07-03T18:32:50.455Z,24.10
2018-07-03T18:35:19.548Z,25.20
2018-07-03T18:37:48.858Z,25.70
2018-07-03T18:40:17.176Z,26.20
2018-07-03T18:42:45.591Z,27.00
2018-07-03T18:45:13.840Z,27.40
2018-07-03T18:50:11.362Z,28.20
2018-07-03T18:52:47.634Z,28.70
2018-07-03T18:55:18.221Z,28.60
2018-07-03T18:57:46.637Z,28.80
2018-07-03T19:00:15.091Z,28.40
2018-07-03T19:02:44.339Z,28.90
2018-07-03T19:05:12.771Z,32.70
2018-07-03T19:07:44.788Z,33.70
2018-07-03T19:10:13.434Z,34.70
2018-07-03T19:12:41.880Z,37.20
2018-07-03T19:15:11.018Z,38.60
2018-07-03T19:17:42.133Z,40.50
2018-07-03T19:20:12.333Z,41.20
2018-07-03T19:22:40.784Z,42.00
2018-07-03T19:25:08.991Z,42.30
2018-07-03T19:27:37.318Z,42.20
2018-07-03T19:30:05.742Z,41.70
2018-07-03T19:32:34.043Z,42.60
2018-07-03T19:35:02.355Z,42.90
2018-07-03T19:37:30.836Z,42.50
2018-07-03T19:39:59.085Z,42.80
2018-07-03T19:42:27.343Z,41.50
2018-07-03T19:44:55.743Z,41.50
2018-07-03T19:47:25.066Z,41.10
2018-07-03T19:49:53.331Z,41.30
2018-07-03T19:52:21.923Z,42.60
2018-07-03T19:54:50.304Z,43.20
2018-07-03T19:57:18.960Z,43.70
2018-07-03T20:02:15.341Z,44.60
2018-07-03T20:04:43.570Z,45.50
2018-07-03T20:07:12.542Z,45.70
2018-07-03T20:09:40.787Z,48.70
2018-07-03T20:12:09.037Z,49.90
2018-07-03T20:14:37.413Z,52.60
2018-07-03T20:17:05.713Z,52.20
2018-07-03T20:19:33.935Z,52.70
2018-07-03T20:22:02.145Z,53.40
2018-07-03T20:24:31.921Z,53.90
2018-07-03T20:27:00.106Z,53.90
2018-07-03T20:29:28.883Z,54.50
2018-07-03T20:31:57.214Z,54.70
2018-07-03T20:34:25.502Z,53.90
2018-07-03T20:36:53.866Z,52.40
2018-07-03T20:39:22.391Z,54.00
2018-07-03T20:41:52.243Z,54.00
2018-07-03T20:44:21.590Z,54.10
2018-07-03T20:46:50.006Z,55.30
2018-07-03T20:49:19.057Z,55.90
2018-07-03T20:51:47.450Z,56.50
2018-07-03T20:56:45.053Z,56.70
2018-07-03T20:59:13.931Z,57.10
2018-07-03T21:01:42.914Z,58.10
2018-07-03T21:04:11.197Z,58.60
2018-07-03T21:06:40.212Z,59.20
2018-07-03T21:09:09.780Z,59.30
2018-07-03T21:11:39.623Z,59.50
2018-07-03T21:14:07.900Z,59.80
2018-07-03T21:16:36.802Z,59.80
2018-07-03T21:19:05.869Z,60.50
2018-07-03T21:21:34.376Z,61.00
2018-07-03T21:24:05.110Z,60.80
2018-07-03T21:26:38.033Z,61.20
2018-07-03T21:29:06.339Z,60.60
2018-07-03T21:31:35.024Z,61.00
2018-07-03T21:34:04.806Z,61.40
2018-07-03T21:36:33.151Z,63.00
2018-07-03T21:39:01.665Z,62.90
2018-07-03T21:41:29.836Z,65.00
2018-07-03T21:43:59.752Z,65.10
2018-07-03T21:46:28.255Z,65.30
2018-07-03T21:48:56.839Z,65.30
2018-07-03T21:51:25.244Z,65.20
2018-07-03T21:53:53.473Z,64.70
2018-07-03T21:56:26.585Z,64.30
2018-07-03T22:01:22.963Z,66.80
2018-07-03T22:03:51.268Z,68.30
2018-07-03T22:06:20.031Z,68.00
2018-07-03T22:08:48.432Z,66.80
2018-07-03T22:11:20.114Z,67.90
2018-07-03T22:13:48.308Z,69.10
2018-07-03T22:16:16.541Z,70.40
2018-07-03T22:18:44.968Z,73.30
2018-07-03T22:21:13.270Z,74.70
2018-07-03T22:26:13.828Z,74.90
2018-07-03T22:28:45.340Z,73.40
2018-07-03T22:31:13.600Z,75.00
2018-07-03T22:33:41.844Z,73.90
2018-07-03T22:36:10.856Z,73.00
2018-07-03T22:38:39.240Z,75.30
2018-07-03T22:41:12.229Z,76.70
2018-07-03T22:43:44.880Z,78.60
2018-07-03T22:46:13.136Z,82.10
2018-07-03T22:48:42.159Z,84.50
2018-07-03T22:51:14.317Z,86.60
2018-07-03T22:53:42.593Z,88.40
2018-07-03T22:56:10.845Z,90.00
2018-07-03T22:58:39.133Z,90.40
2018-07-03T23:01:07.371Z,91.50
2018-07-03T23:03:35.547Z,92.10
2018-07-03T23:06:03.772Z,92.90
2018-07-03T23:08:31.976Z,93.20
2018-07-03T23:11:00.169Z,91.80
2018-07-03T23:13:32.625Z,90.90
2018-07-03T23:16:00.992Z,92.10
2018-07-03T23:18:29.309Z,93.70
2018-07-03T23:20:57.616Z,93.70
2018-07-03T23:23:25.876Z,93.70
2018-07-03T23:25:54.208Z,93.10
2018-07-03T23:28:25.681Z,91.70
2018-07-03T23:30:53.961Z,93.50
2018-07-03T23:33:22.261Z,93.70
2018-07-03T23:35:50.539Z,94.60
2018-07-03T23:38:18.784Z,94.00
2018-07-03T23:40:47.030Z,93.40
2018-07-03T23:43:19.002Z,93.80
2018-07-03T23:46:04.884Z,94.50
2018-07-03T23:51:18.905Z,96.40
2018-07-03T23:53:59.248Z,97.10
2018-07-03T23:56:39.587Z,97.00
2018-07-03T23:59:23.492Z,97.60
